Aérodrome :
LOGIN :

S'inscrire | Disclaimer

   EN    FR    IT 

 










Légende :    VFR   VFR Marginal   IFR   IFR Intensif   IFR Très Intensif
Visi : 
Plafond : 
>= 8 km
>= 3000ft
5 à 8 km
1000 à 3000 ft
1500m à 5 km
500 à 1000 ft
800 à 1500m
200 à 500 ft
< 800m
< 200 ft
Symboles :   Orages  Brouillard  Fortes neiges  Fortes précipitations  Vent > 20 kt
SIGMETs :   Divers  Orages  Givrage  Turbulence  Onde Orograph.  Cendres Volcan.







- Altitude de l'aérodrome : 325 ft
- Code IATA : BES
- Voir les cartes d'approche


LFRB - Brest

DERNIER METAR :
  • 270600Z AUTO 16018KT 3800 RA BR BKN009/// OVC013/// ///CB 10/09 Q1001 TEMPO 18020G35KT BKN010 SCT030CB

METARs EXPIRÉS :
  • 270530Z AUTO 16017KT 9999 4700 DZ BKN016/// BKN023/// BKN031/// ///TCU 10/08 Q1002 TEMPO 18020G35KT 3000 RA BKN010 SCT030CB
  • 270500Z AUTO 17014KT 9999 FEW010 BKN045 OVC052 10/08 Q1003 TEMPO 18020G35KT 3000 RA OVC008
  • 270430Z AUTO 15015KT 9999 -RA SCT047/// BKN054/// OVC066/// ///CB 10/08 Q1003 TEMPO 18020G35KT 3000 RA OVC008
  • 270400Z AUTO 18014KT 9999 -RA BKN017/// BKN028/// BKN038/// ///CB 10/08 Q1005 TEMPO 18020G35KT 3000 RA OVC008
  • 270330Z AUTO 18017G34KT 9999 RA SCT021/// BKN031/// OVC042/// ///TCU 10/08 Q1006 TEMPO 3000 RA OVC008

TAF TAF LFRB
Valide du 27 à 06h jusqu'au 28 à 12h UTC


270500Z 2706/2812 18015G25KT 9999 BKN016
TEMPO 2706/2710 18020G35KT 3000 RA BKN010 SCT030CB
BECMG 2710/2712 22020G30KT BKN015
TEMPO 2710/2803 SHRA BKN005 BKN020
BECMG 2718/2721 26010KT
ATIS : +33 2 98 32 02 71
Pas de NOTAMs connus pour ce terrain.
1 SIGMET publié pour la FIR Brest (LFRR) :
 
Turbulence forte
LFRR SIGMET 1 VALID 270400/270800 LFPW
LFRR BREST FIR/UIR SEV TURB FCST WI N4600 W00800 - N4815 W00800 - N4815 W00615 - N4600 W00630 - N4600 W00800 SFC/FL060 MOV E 20KT NC=



MET'MAP, la Météo Aéronautique d'un coup d'oeil ! - Copyright ORBIFLY Décembre 2007 - Disclaimer

ORBIFLY MET'MAP TEAM :

Programmation & Développement : Alexandra Zaïnal
Conception & Développement : Baudouin d'Aumeries
Co-Programmation & Développement : Marc-Olivier Méhu
Soutien technique & logistique : Manuel Goepfert

Contact : metmap@orbifly.com




SOURCES & CREDITS :

   NOAA